Time;durP1;ratioP1;P1;durP2;ratioP2;P2;SDS_P1;SDS_P2;PMS_P1;PMS_P2;Temp;Humidity;BMP_temperature;BMP_pressure;BME280_temperature;BME280_humidity;BME280_pressure;Samples;Min_cycle;Max_cycle;Signal;HPM_P1;HPM_P2
2022/11/14 00:01:07;;;;;;;11.32;7.65;;;;;;;6.97;79.84;100003.19;6117939;22;20380;-89
2022/11/14 00:03:52;;;;;;;14.82;8.40;;;;;;;7.04;79.74;100009.72;6141569;22;20346;-88
2022/11/14 00:06:37;;;;;;;13.60;8.52;;;;;;;6.93;80.36;100007.03;6187328;22;20012;-88
2022/11/14 00:09:26;;;;;;;12.65;7.90;;;;;;;6.94;80.57;100009.53;6107692;22;20028;-89
2022/11/14 00:12:12;;;;;;;14.13;7.95;;;;;;;6.97;80.29;100005.81;6166140;22;20338;-89
2022/11/14 00:14:57;;;;;;;12.98;8.73;;;;;;;6.90;80.39;100010.72;6163402;22;20028;-88
2022/11/14 00:17:42;;;;;;;11.73;7.85;;;;;;;6.96;80.42;100006.78;6163294;22;20016;-88
2022/11/14 00:20:28;;;;;;;12.95;8.30;;;;;;;6.96;80.73;100009.44;6141275;22;20024;-88
2022/11/14 00:23:13;;;;;;;12.38;7.88;;;;;;;6.95;81.21;100010.41;6178686;22;20016;-88
2022/11/14 00:25:59;;;;;;;11.90;7.82;;;;;;;6.92;81.38;100008.81;6153928;22;20441;-88
2022/11/14 00:28:44;;;;;;;13.95;8.45;;;;;;;6.95;81.73;100007.75;6182085;22;20017;-89
2022/11/14 00:31:30;;;;;;;17.73;8.93;;;;;;;7.00;81.14;100000.34;6110392;22;20024;-88
2022/11/14 00:34:15;;;;;;;13.50;8.85;;;;;;;7.04;81.42;100008.91;6207200;22;20498;-89
2022/11/14 00:37:01;;;;;;;18.00;9.43;;;;;;;7.05;81.54;100002.69;6118506;22;20345;-89
2022/11/14 00:39:46;;;;;;;15.90;9.68;;;;;;;6.98;81.62;99999.63;6163918;22;20027;-88
2022/11/14 00:42:33;;;;;;;16.27;10.07;;;;;;;7.07;80.81;99998.97;6140955;22;20687;-88
2022/11/14 00:45:19;;;;;;;17.00;10.07;;;;;;;7.08;80.16;99983.97;6183392;22;20499;-89
2022/11/14 00:48:04;;;;;;;15.05;9.05;;;;;;;7.13;80.18;99995.88;6135165;22;20096;-89
2022/11/14 00:50:50;;;;;;;15.82;9.40;;;;;;;7.13;79.86;99992.41;6137866;22;20146;-88
2022/11/14 00:53:35;;;;;;;18.35;9.80;;;;;;;7.15;80.02;99993.16;6139600;23;20345;-88
2022/11/14 00:56:21;;;;;;;15.55;9.90;;;;;;;7.15;79.71;99990.50;6131160;22;20040;-87
2022/11/14 00:59:06;;;;;;;17.88;12.13;;;;;;;7.12;80.23;99994.22;6157813;22;20036;-87
2022/11/14 01:01:51;;;;;;;22.95;11.95;;;;;;;7.12;79.91;99988.94;6111501;22;20032;-88
2022/11/14 01:04:42;;;;;;;15.27;9.20;;;;;;;7.11;79.72;99989.03;6207184;22;20032;-87
2022/11/14 01:07:27;;;;;;;15.20;9.48;;;;;;;7.09;79.83;99978.56;6143984;22;20464;-87
2022/11/14 01:10:12;;;;;;;15.52;8.65;;;;;;;7.11;79.59;99981.09;6188126;22;20023;-87
2022/11/14 01:12:57;;;;;;;15.02;9.43;;;;;;;7.10;79.63;99972.34;6230333;22;20024;-87
2022/11/14 01:15:46;;;;;;;14.10;9.15;;;;;;;7.07;80.87;99974.34;6108647;22;20439;-88
2022/11/14 01:18:32;;;;;;;13.70;9.02;;;;;;;7.15;80.28;99972.03;6152485;22;20107;-88
2022/11/14 01:21:18;;;;;;;13.65;9.13;;;;;;;7.09;80.35;99973.28;6222934;22;20039;-88
2022/11/14 01:24:03;;;;;;;17.23;9.63;;;;;;;7.18;79.21;99964.72;6131947;22;20023;-88
2022/11/14 01:26:49;;;;;;;16.67;9.85;;;;;;;7.15;79.56;99957.00;6164418;22;20087;-89
2022/11/14 01:29:35;;;;;;;15.15;9.35;;;;;;;7.15;79.54;99950.88;6177044;22;20056;-90
2022/11/14 01:32:20;;;;;;;15.98;9.55;;;;;;;7.25;78.99;99951.91;6179208;22;20021;-88
2022/11/14 01:35:05;;;;;;;15.75;10.15;;;;;;;7.25;79.09;99944.00;6152410;22;20404;-88
2022/11/14 01:37:51;;;;;;;14.07;9.52;;;;;;;7.26;79.08;99936.91;6208634;22;20024;-88
2022/11/14 01:40:41;;;;;;;16.80;9.90;;;;;;;7.25;79.24;99933.41;6163359;22;20099;-89
2022/11/14 01:43:32;;;;;;;15.75;9.68;;;;;;;7.21;79.43;99939.88;6134060;22;20394;-88
2022/11/14 01:46:22;;;;;;;16.48;9.73;;;;;;;7.20;78.98;99937.31;6141166;22;20043;-90
2022/11/14 01:49:13;;;;;;;16.42;9.82;;;;;;;7.25;78.77;99936.06;6122282;22;20356;-88
2022/11/14 01:52:02;;;;;;;16.88;10.38;;;;;;;7.24;78.90;99931.72;6159666;22;20073;-88
2022/11/14 01:54:51;;;;;;;16.70;9.73;;;;;;;7.27;78.32;99920.09;6161267;22;20023;-89
2022/11/14 01:57:40;;;;;;;17.08;10.00;;;;;;;7.25;78.18;99919.34;6182044;22;20155;-88
2022/11/14 02:00:26;;;;;;;16.35;9.90;;;;;;;7.31;78.56;99921.56;6145612;22;20044;-89
2022/11/14 02:03:13;;;;;;;21.30;10.88;;;;;;;7.31;78.53;99922.41;6161102;22;20020;-88
2022/11/14 02:05:59;;;;;;;17.55;10.30;;;;;;;7.30;78.28;99909.28;6205706;22;20167;-88
2022/11/14 02:08:45;;;;;;;16.40;10.38;;;;;;;7.32;78.16;99917.94;6157168;22;20021;-88
2022/11/14 02:11:34;;;;;;;18.13;10.60;;;;;;;7.29;79.18;99916.38;6202439;22;20024;-89
2022/11/14 02:14:19;;;;;;;17.08;10.70;;;;;;;7.30;78.66;99911.94;6155870;22;20021;-87
2022/11/14 02:17:04;;;;;;;17.67;10.45;;;;;;;7.32;78.86;99904.75;6249136;22;20104;-89
2022/11/14 02:20:10;;;;;;;18.30;10.05;;;;;;;7.32;78.34;99897.66;6118087;22;20110;-89
2022/11/14 02:22:55;;;;;;;17.92;10.65;;;;;;;7.33;78.65;99890.59;6157132;22;20055;-88
2022/11/14 02:25:40;;;;;;;17.38;10.10;;;;;;;7.34;78.54;99889.63;6151206;22;20365;-90
2022/11/14 02:28:26;;;;;;;18.80;10.05;;;;;;;7.34;78.35;99879.91;6225256;22;20021;-89
2022/11/14 02:31:12;;;;;;;17.35;9.38;;;;;;;7.30;79.77;99881.09;6212055;22;20020;-88
2022/11/14 02:33:58;;;;;;;16.15;9.93;;;;;;;7.28;80.57;99884.81;6168053;22;20027;-89
2022/11/14 02:36:43;;;;;;;14.88;9.68;;;;;;;7.27;80.67;99883.09;6146316;22;20043;-89
2022/11/14 02:39:28;;;;;;;15.73;9.63;;;;;;;7.31;80.73;99866.94;6192052;22;20333;-89
2022/11/14 02:42:14;;;;;;;15.32;9.13;;;;;;;7.29;80.94;99865.34;6107629;22;20020;-89
2022/11/14 02:44:59;;;;;;;17.00;10.05;;;;;;;7.25;81.35;99862.13;6183172;22;20090;-89
2022/11/14 02:47:45;;;;;;;17.35;9.57;;;;;;;7.30;80.86;99865.25;6158443;22;20028;-88
2022/11/14 02:50:31;;;;;;;16.83;9.35;;;;;;;7.30;80.02;99873.19;6226752;22;20485;-89
2022/11/14 02:53:16;;;;;;;19.65;10.65;;;;;;;7.23;81.13;99871.09;6228721;22;20044;-90
2022/11/14 02:56:01;;;;;;;16.52;9.60;;;;;;;7.28;81.25;99882.16;6180056;22;20044;-89
2022/11/14 02:58:47;;;;;;;16.20;9.98;;;;;;;7.31;81.08;99887.22;6203357;22;20087;-89
2022/11/14 03:01:32;;;;;;;18.55;9.93;;;;;;;7.26;81.16;99895.47;6202403;22;20472;-88
2022/11/14 03:04:17;;;;;;;17.92;10.85;;;;;;;7.27;81.05;99885.75;6157458;22;20027;-89
2022/11/14 03:07:02;;;;;;;15.30;9.45;;;;;;;7.24;81.44;99880.69;6203316;22;20365;-89
2022/11/14 03:09:48;;;;;;;18.50;9.85;;;;;;;7.28;80.76;99880.38;6159354;22;20020;-88
2022/11/14 03:12:33;;;;;;;19.08;9.98;;;;;;;7.28;81.14;99880.38;6214625;22;20020;-90
2022/11/14 03:15:18;;;;;;;17.92;10.68;;;;;;;7.25;81.76;99872.69;6189827;22;20070;-90
2022/11/14 03:18:04;;;;;;;16.67;10.02;;;;;;;7.27;81.07;99872.53;6211708;22;20024;-90
2022/11/14 03:20:49;;;;;;;17.33;10.85;;;;;;;7.26;81.42;99879.63;6142503;22;20024;-88
2022/11/14 03:23:34;;;;;;;18.60;10.57;;;;;;;7.30;81.75;99873.19;6114427;22;20020;-90
2022/11/14 03:26:20;;;;;;;15.35;9.30;;;;;;;7.30;81.89;99872.31;6110864;22;20433;-89
2022/11/14 03:29:06;;;;;;;18.30;10.60;;;;;;;7.24;82.68;99880.69;6171368;22;20023;-89
2022/11/14 03:31:52;;;;;;;16.75;9.57;;;;;;;7.24;83.12;99878.91;6137427;22;20027;-89
2022/11/14 03:34:37;;;;;;;15.00;9.32;;;;;;;7.25;83.43;99874.44;6161951;22;20020;-92
2022/11/14 03:37:22;;;;;;;16.27;9.60;;;;;;;7.26;83.11;99871.72;6207778;22;20028;-90
2022/11/14 03:40:08;;;;;;;16.55;9.80;;;;;;;7.28;82.36;99861.03;6116639;22;20012;-89
2022/11/14 03:42:56;;;;;;;15.23;9.55;;;;;;;7.26;82.07;99855.84;6165226;22;20567;-89
2022/11/14 03:45:41;;;;;;;14.63;9.23;;;;;;;7.26;82.49;99861.13;6145890;22;20020;-89
2022/11/14 03:48:27;;;;;;;16.63;10.00;;;;;;;7.27;82.67;99856.69;6114390;22;20027;-89
2022/11/14 03:51:13;;;;;;;19.52;11.07;;;;;;;7.29;82.76;99842.41;6184323;22;20024;-90
2022/11/14 03:53:59;;;;;;;19.15;10.70;;;;;;;7.30;82.84;99841.47;6137885;22;20099;-90
2022/11/14 03:56:44;;;;;;;18.10;10.50;;;;;;;7.33;82.74;99837.75;6163149;22;20058;-90
2022/11/14 03:59:29;;;;;;;17.83;9.88;;;;;;;7.25;83.30;99830.41;6142393;22;20024;-89
2022/11/14 04:02:15;;;;;;;18.10;10.35;;;;;;;7.27;83.02;99840.84;6136852;22;20027;-90
2022/11/14 04:05:00;;;;;;;17.30;9.88;;;;;;;7.24;83.22;99841.91;6179660;22;20024;-90
2022/11/14 04:07:45;;;;;;;16.80;9.70;;;;;;;7.33;82.97;99845.69;6115364;22;20353;-89
2022/11/14 04:10:31;;;;;;;16.13;10.52;;;;;;;7.34;83.25;99853.47;6144368;22;20018;-89
2022/11/14 04:13:16;;;;;;;16.42;9.57;;;;;;;7.28;83.50;99842.56;6158578;22;20151;-91
2022/11/14 04:16:27;;;;;;;17.33;9.98;;;;;;;7.14;84.73;99840.91;5924137;23;20058;-92
2022/11/14 04:19:35;;;;;;;15.63;9.85;;;;;;;7.28;83.22;99832.00;5845789;24;20658;-91
2022/11/14 04:22:19;;;;;;;17.13;10.63;;;;;;;7.28;82.99;99818.78;5847507;24;20121;-91
2022/11/14 04:25:05;;;;;;;17.60;10.50;;;;;;;7.25;82.77;99811.94;5910615;24;20118;-91
2022/11/14 04:27:49;;;;;;;17.70;10.30;;;;;;;7.24;82.68;99833.16;5867605;24;21509;-92
2022/11/14 04:30:33;;;;;;;16.25;10.23;;;;;;;7.26;83.03;99845.28;5868872;24;20099;-89
2022/11/14 04:33:17;;;;;;;16.45;10.00;;;;;;;7.26;83.53;99853.22;5892125;24;20058;-89
2022/11/14 04:36:02;;;;;;;18.85;10.63;;;;;;;7.25;83.22;99846.25;5849477;24;20481;-88
2022/11/14 04:38:46;;;;;;;16.88;10.85;;;;;;;7.27;83.27;99848.78;5868875;24;20041;-88
2022/11/14 04:41:30;;;;;;;18.58;11.27;;;;;;;7.27;83.56;99854.88;5919022;23;20063;-86
2022/11/14 04:44:18;;;;;;;23.70;12.60;;;;;;;7.31;83.33;99847.59;5932178;23;20030;-88
2022/11/14 04:47:11;;;;;;;23.90;14.60;;;;;;;7.38;82.95;99851.47;5899607;23;20023;-92
2022/11/14 04:49:57;;;;;;;23.30;12.82;;;;;;;7.36;82.79;99850.75;5936413;23;20026;-88
2022/11/14 04:52:42;;;;;;;26.55;14.75;;;;;;;7.41;82.62;99847.75;5990165;23;20023;-88
2022/11/14 04:55:27;;;;;;;25.27;13.55;;;;;;;7.37;82.84;99850.59;5925374;23;20146;-91
2022/11/14 04:58:13;;;;;;;26.33;13.85;;;;;;;7.38;82.64;99840.91;5963436;23;20091;-85
2022/11/14 05:00:58;;;;;;;23.77;13.65;;;;;;;7.35;83.15;99852.53;5904488;23;20063;-85
2022/11/14 05:03:43;;;;;;;23.63;13.48;;;;;;;7.35;83.46;99846.41;5945948;23;20051;-84
2022/11/14 05:06:29;;;;;;;20.58;13.02;;;;;;;7.40;83.39;99836.31;5967348;23;20034;-84
2022/11/14 05:09:14;;;;;;;26.75;15.25;;;;;;;7.41;83.32;99829.25;5918342;23;20776;-86
2022/11/14 05:11:59;;;;;;;25.23;14.38;;;;;;;7.41;83.37;99829.25;6037579;22;20349;-86
2022/11/14 05:14:45;;;;;;;28.73;15.82;;;;;;;7.41;83.34;99831.91;6139021;22;20019;-85
2022/11/14 05:17:30;;;;;;;31.70;16.73;;;;;;;7.37;83.42;99828.63;6208555;22;20125;-85
2022/11/14 05:20:16;;;;;;;28.55;15.05;;;;;;;7.35;82.99;99823.47;6152502;22;20095;-85
2022/11/14 05:23:01;;;;;;;24.58;14.55;;;;;;;7.41;82.68;99830.09;6179705;22;20322;-84
2022/11/14 05:25:47;;;;;;;24.13;13.43;;;;;;;7.37;83.11;99824.19;6113172;22;20028;-85
2022/11/14 05:28:32;;;;;;;28.42;13.98;;;;;;;7.38;82.85;99819.78;6163208;22;20090;-86
2022/11/14 05:31:18;;;;;;;27.38;14.82;;;;;;;7.37;82.98;99815.44;6131591;22;20034;-86
2022/11/14 05:34:03;;;;;;;25.33;14.25;;;;;;;7.36;82.66;99808.47;6186511;22;20511;-85
2022/11/14 05:36:48;;;;;;;23.30;14.30;;;;;;;7.34;83.00;99805.09;6208718;22;20028;-84
2022/11/14 05:39:34;;;;;;;23.60;14.52;;;;;;;7.28;82.69;99785.28;6157418;23;20062;-85
2022/11/14 05:42:19;;;;;;;26.40;14.70;;;;;;;7.30;82.74;99788.66;6112382;22;20381;-83
2022/11/14 05:45:05;;;;;;;23.60;13.07;;;;;;;7.30;82.62;99795.72;6166560;22;20024;-84
2022/11/14 05:47:52;;;;;;;24.65;14.35;;;;;;;7.21;83.33;99793.78;6098778;22;20020;-84
2022/11/14 05:50:38;;;;;;;22.55;13.02;;;;;;;7.16;83.84;99800.25;6180736;22;20142;-83
2022/11/14 05:53:24;;;;;;;23.83;13.50;;;;;;;7.17;83.78;99795.78;6136715;22;20036;-83
2022/11/14 05:56:11;;;;;;;22.27;13.32;;;;;;;7.11;84.02;99801.53;6182356;22;20020;-88
2022/11/14 05:58:56;;;;;;;21.70;12.77;;;;;;;7.09;84.04;99791.09;6161165;22;20134;-88
2022/11/14 06:01:41;;;;;;;25.60;14.20;;;;;;;7.11;83.80;99780.41;6136521;22;20036;-86
2022/11/14 06:04:27;;;;;;;26.40;13.25;;;;;;;7.06;83.94;99793.13;6203063;22;20159;-87
2022/11/14 06:07:12;;;;;;;24.02;14.07;;;;;;;7.00;83.83;99807.63;6197224;22;20445;-87
2022/11/14 06:10:04;;;;;;;27.90;15.00;;;;;;;6.98;83.52;99816.63;6144966;22;20081;-87
2022/11/14 06:12:49;;;;;;;23.70;15.02;;;;;;;6.97;84.12;99810.47;6223985;22;20028;-88
2022/11/14 06:15:34;;;;;;;27.85;14.98;;;;;;;6.94;84.37;99808.06;6223163;22;20033;-87
2022/11/14 06:18:20;;;;;;;25.48;14.95;;;;;;;6.91;84.29;99803.03;6223716;22;20025;-87
2022/11/14 06:21:31;;;;;;;27.35;15.35;;;;;;;6.93;83.94;99812.50;6207271;22;20024;-87
2022/11/14 06:24:16;;;;;;;25.83;14.43;;;;;;;6.90;84.40;99804.81;6128854;22;20027;-88
2022/11/14 06:27:01;;;;;;;28.10;14.85;;;;;;;6.87;84.38;99793.63;6191182;22;20024;-88
2022/11/14 06:29:46;;;;;;;26.90;14.05;;;;;;;6.91;84.25;99811.78;6184048;22;20024;-87
2022/11/14 06:32:32;;;;;;;25.92;13.65;;;;;;;6.86;84.37;99813.91;6236400;22;20031;-87
2022/11/14 06:35:17;;;;;;;25.50;14.32;;;;;;;6.86;84.14;99805.16;6162299;22;20352;-87
2022/11/14 06:38:02;;;;;;;23.20;13.82;;;;;;;6.81;84.19;99805.47;6212299;22;20101;-88
2022/11/14 06:40:47;;;;;;;27.55;13.70;;;;;;;6.77;84.29;99809.31;6142564;22;20042;-87
2022/11/14 06:43:37;;;;;;;23.65;13.95;;;;;;;6.71;84.30;99821.16;6157507;22;20024;-88
2022/11/14 06:46:22;;;;;;;34.00;16.30;;;;;;;6.70;84.59;99829.19;6113057;22;20721;-87
2022/11/14 06:49:07;;;;;;;37.35;19.67;;;;;;;6.76;84.59;99834.00;6134408;22;20392;-88
2022/11/14 06:51:53;;;;;;;33.38;17.52;;;;;;;6.76;84.81;99828.72;6167168;22;20086;-87
2022/11/14 06:54:38;;;;;;;30.00;14.93;;;;;;;6.76;85.14;99835.81;6182497;22;20444;-88
2022/11/14 06:57:24;;;;;;;29.13;15.27;;;;;;;6.76;84.84;99831.38;6210511;22;20364;-87
2022/11/14 07:00:09;;;;;;;25.85;14.18;;;;;;;6.83;84.27;99832.63;6208464;22;20074;-88
2022/11/14 07:02:55;;;;;;;24.95;13.90;;;;;;;6.87;84.01;99830.59;6208582;22;20020;-88
2022/11/14 07:05:40;;;;;;;26.23;13.88;;;;;;;6.78;84.16;99833.91;6162157;22;20016;-87
2022/11/14 07:08:25;;;;;;;26.10;14.52;;;;;;;6.77;84.56;99833.06;6185530;22;20038;-88
2022/11/14 07:11:22;;;;;;;22.92;13.60;;;;;;;6.81;84.45;99825.75;6162076;22;20974;-86
2022/11/14 07:14:08;;;;;;;25.23;14.25;;;;;;;6.76;84.87;99833.16;6184533;22;20020;-87
2022/11/14 07:16:53;;;;;;;26.02;14.88;;;;;;;6.78;84.63;99832.09;6155348;22;20025;-88
2022/11/14 07:19:38;;;;;;;28.30;14.02;;;;;;;6.80;84.63;99839.94;6182092;22;20467;-88
2022/11/14 07:22:24;;;;;;;27.63;15.02;;;;;;;6.89;84.44;99834.78;6199271;22;20143;-87
2022/11/14 07:25:09;;;;;;;27.50;15.55;;;;;;;6.92;84.01;99834.59;6179999;22;20012;-88
2022/11/14 07:27:56;;;;;;;33.50;15.93;;;;;;;6.94;84.00;99842.38;6176972;22;20095;-87
2022/11/14 07:30:41;;;;;;;29.15;15.00;;;;;;;7.00;83.79;99828.75;6156323;22;20354;-88
2022/11/14 07:33:27;;;;;;;30.02;15.90;;;;;;;6.96;84.12;99820.19;6200430;22;20476;-87
2022/11/14 07:36:13;;;;;;;30.42;15.27;;;;;;;7.00;83.97;99838.47;6186703;22;20424;-87
2022/11/14 07:38:58;;;;;;;34.20;16.20;;;;;;;7.06;83.95;99845.94;6182483;22;20047;-87
2022/11/14 07:41:44;;;;;;;33.97;17.13;;;;;;;7.08;83.81;99852.78;6130765;22;20019;-87
2022/11/14 07:44:29;;;;;;;33.55;15.73;;;;;;;7.09;83.86;99851.81;6138587;22;20452;-88
2022/11/14 07:47:14;;;;;;;28.83;16.17;;;;;;;7.11;84.17;99849.06;6209458;22;20102;-88
2022/11/14 07:50:00;;;;;;;30.70;16.65;;;;;;;7.11;84.42;99854.34;6164563;22;20027;-87
2022/11/14 07:52:50;;;;;;;27.40;15.00;;;;;;;7.10;84.81;99868.53;6181927;22;20039;-87
2022/11/14 07:55:36;;;;;;;28.95;16.00;;;;;;;7.15;84.69;99861.09;6136563;22;20061;-88
2022/11/14 07:58:21;;;;;;;32.25;15.13;;;;;;;7.20;83.88;99855.47;6211168;22;20031;-87
2022/11/14 08:01:09;;;;;;;30.17;14.65;;;;;;;7.23;83.45;99861.38;6188740;22;20020;-88
2022/11/14 08:03:54;;;;;;;28.70;15.45;;;;;;;7.25;83.21;99859.47;6142791;22;20022;-88
2022/11/14 08:06:39;;;;;;;31.88;15.43;;;;;;;7.29;83.54;99868.84;6226441;22;20361;-87
2022/11/14 08:09:24;;;;;;;28.90;14.98;;;;;;;7.35;83.55;99873.69;6185089;22;20054;-87
2022/11/14 08:12:10;;;;;;;29.90;15.15;;;;;;;7.36;83.42;99870.06;6225211;22;20035;-87
2022/11/14 08:14:55;;;;;;;27.83;14.80;;;;;;;7.39;83.43;99869.81;6223775;22;20592;-87
2022/11/14 08:17:40;;;;;;;32.53;16.55;;;;;;;7.43;83.15;99874.88;6136041;22;20026;-87
2022/11/14 08:20:26;;;;;;;26.25;14.32;;;;;;;7.45;82.54;99870.31;6213929;22;20032;-88
2022/11/14 08:23:12;;;;;;;26.65;14.85;;;;;;;7.47;82.51;99871.91;6229508;22;20035;-88
2022/11/14 08:25:58;;;;;;;26.73;14.63;;;;;;;7.53;82.32;99874.09;6185884;22;20020;-88
2022/11/14 08:28:43;;;;;;;26.95;14.23;;;;;;;7.56;82.31;99870.38;6137470;22;20024;-88
2022/11/14 08:31:29;;;;;;;26.00;14.63;;;;;;;7.58;82.32;99860.50;6185948;22;20016;-87
2022/11/14 08:34:14;;;;;;;28.40;14.13;;;;;;;7.59;82.06;99862.22;6188452;22;20016;-87
2022/11/14 08:37:00;;;;;;;23.70;13.52;;;;;;;7.60;81.96;99858.59;6235778;22;20102;-87
2022/11/14 08:39:45;;;;;;;24.42;13.07;;;;;;;7.60;82.16;99861.25;6162219;22;20027;-87
2022/11/14 08:42:31;;;;;;;24.13;13.13;;;;;;;7.60;81.95;99861.25;6179272;22;20226;-88
2022/11/14 08:45:16;;;;;;;21.50;12.57;;;;;;;7.61;81.75;99860.31;6140096;22;20027;-88
2022/11/14 08:48:01;;;;;;;23.25;13.35;;;;;;;7.60;82.16;99855.97;6162190;22;20407;-88
2022/11/14 08:50:47;;;;;;;26.88;13.73;;;;;;;7.57;82.02;99869.41;6162997;22;20091;-87
2022/11/14 08:53:33;;;;;;;25.27;12.98;;;;;;;7.61;81.79;99853.22;6181000;22;20483;-88
2022/11/14 08:56:18;;;;;;;24.48;12.32;;;;;;;7.65;81.46;99863.53;6180422;22;20027;-88
2022/11/14 08:59:03;;;;;;;22.15;12.65;;;;;;;7.69;81.56;99865.84;6184267;22;20043;-88
2022/11/14 09:01:48;;;;;;;22.08;12.38;;;;;;;7.74;81.61;99862.84;6139443;22;20024;-87
2022/11/14 09:04:36;;;;;;;23.00;12.32;;;;;;;7.80;81.72;99855.28;6207229;22;20352;-87
2022/11/14 09:07:22;;;;;;;24.38;13.30;;;;;;;7.86;81.67;99855.78;6164499;22;20090;-88
2022/11/14 09:10:07;;;;;;;23.40;12.48;;;;;;;7.90;81.35;99852.78;6111358;22;20032;-88
2022/11/14 09:13:00;;;;;;;24.85;12.43;;;;;;;7.93;81.41;99843.78;6204689;22;20023;-87
2022/11/14 09:15:46;;;;;;;23.47;13.13;;;;;;;7.96;81.73;99835.59;6189768;22;20026;-88
2022/11/14 09:18:31;;;;;;;25.27;12.13;;;;;;;7.94;81.66;99838.38;6189378;22;20020;-87
2022/11/14 09:21:16;;;;;;;18.05;11.20;;;;;;;7.98;81.77;99850.38;6166990;22;20028;-88
2022/11/14 09:24:02;;;;;;;20.65;10.73;;;;;;;8.01;81.68;99846.66;6209410;22;20070;-88
2022/11/14 09:26:50;;;;;;;18.33;10.88;;;;;;;7.99;81.59;99830.94;6211711;22;20028;-88
2022/11/14 09:29:41;;;;;;;20.83;11.18;;;;;;;7.99;81.32;99845.97;6163310;22;20024;-87
2022/11/14 09:32:26;;;;;;;21.45;12.05;;;;;;;8.01;81.20;99844.00;6186616;22;20058;-88
2022/11/14 09:35:13;;;;;;;20.58;10.93;;;;;;;8.02;81.09;99851.00;6207359;22;20028;-88
2022/11/14 09:38:02;;;;;;;20.63;12.10;;;;;;;8.05;81.13;99866.63;6185865;22;20027;-88
2022/11/14 09:41:11;;;;;;;21.98;12.05;;;;;;;7.99;81.29;99861.81;6135490;22;20036;-88
2022/11/14 09:44:23;;;;;;;22.85;11.48;;;;;;;7.99;81.67;99851.25;6140003;22;20452;-88
2022/11/14 09:47:15;;;;;;;29.67;11.73;;;;;;;8.01;81.67;99850.16;6166925;22;20384;-87
2022/11/14 09:50:25;;;;;;;21.35;11.35;;;;;;;7.98;81.81;99844.25;6140530;22;20020;-87
2022/11/14 09:53:21;;;;;;;23.90;12.48;;;;;;;8.00;81.83;99856.41;6110928;22;20016;-88
2022/11/14 09:56:11;;;;;;;21.52;12.43;;;;;;;8.03;82.07;99844.75;6188460;22;20020;-87
2022/11/14 09:58:57;;;;;;;18.92;11.10;;;;;;;8.05;82.07;99856.03;6156425;22;20480;-87
2022/11/14 10:02:00;;;;;;;20.83;11.43;;;;;;;8.01;82.13;99855.47;6185131;22;20091;-88
2022/11/14 10:05:04;;;;;;;19.55;11.27;;;;;;;8.06;82.33;99849.78;6102321;22;20246;-87
2022/11/14 10:08:02;;;;;;;17.83;10.02;;;;;;;8.13;82.31;99845.72;6138879;22;20478;-87
2022/11/14 10:10:56;;;;;;;18.80;10.63;;;;;;;8.13;82.22;99836.94;6164197;22;20023;-87
2022/11/14 10:13:44;;;;;;;19.00;10.25;;;;;;;8.21;82.38;99845.09;6184683;22;20012;-87
2022/11/14 10:16:29;;;;;;;18.60;10.93;;;;;;;8.24;82.51;99839.56;6167907;22;20076;-88
2022/11/14 10:19:25;;;;;;;16.42;9.80;;;;;;;8.23;82.69;99836.09;6151772;22;20091;-88
2022/11/14 10:22:19;;;;;;;19.80;11.15;;;;;;;8.24;82.74;99832.50;6141462;22;20095;-88
2022/11/14 10:25:23;;;;;;;17.85;9.70;;;;;;;8.20;83.87;99830.22;6185372;22;20494;-87
2022/11/14 10:28:23;;;;;;;16.08;9.02;;;;;;;8.22;84.37;99821.19;6125517;22;20028;-87
2022/11/14 10:31:15;;;;;;;17.55;9.25;;;;;;;8.25;84.34;99831.53;6185354;22;20048;-86
2022/11/14 10:34:08;;;;;;;18.65;10.43;;;;;;;8.27;84.45;99816.38;6137497;22;20039;-86
2022/11/14 10:37:04;;;;;;;30.67;13.03;;;;;;;8.29;85.06;99818.88;6117238;22;20486;-87
2022/11/14 10:39:54;;;;;;;25.98;12.70;;;;;;;8.37;84.64;99816.50;6151219;22;20441;-87
2022/11/14 10:42:40;;;;;;;16.55;10.05;;;;;;;8.40;84.85;99808.34;6180237;22;20453;-87
2022/11/14 10:45:29;;;;;;;17.42;9.88;;;;;;;8.40;85.07;99807.50;6165304;22;20027;-87
2022/11/14 10:48:27;;;;;;;14.35;8.70;;;;;;;8.39;85.59;99800.47;6187970;22;20051;-87
2022/11/14 10:51:20;;;;;;;15.90;9.07;;;;;;;8.39;85.92;99801.34;6134507;22;20021;-87
2022/11/14 10:54:09;;;;;;;18.10;9.65;;;;;;;8.41;86.07;99799.41;6162890;22;20444;-87
2022/11/14 10:56:54;;;;;;;18.20;9.65;;;;;;;8.42;86.14;99798.47;6160902;22;20343;-87
2022/11/14 10:59:41;;;;;;;16.25;8.75;;;;;;;8.42;86.33;99793.19;6211394;22;20069;-87
2022/11/14 11:02:46;;;;;;;17.48;10.15;;;;;;;8.35;87.56;99789.31;6121549;22;20031;-87
2022/11/14 11:05:45;;;;;;;16.75;9.85;;;;;;;8.37;87.46;99786.53;6113253;22;20020;-86
2022/11/14 11:11:38;;;;;;;17.05;9.55;;;;;;;8.44;87.42;99785.09;6111470;22;20032;-87
2022/11/14 11:14:24;;;;;;;15.68;8.40;;;;;;;8.46;87.53;99778.72;6138121;22;20091;-87
2022/11/14 11:17:19;;;;;;;18.38;10.40;;;;;;;8.45;87.92;99778.88;6257159;22;20024;-88
2022/11/14 11:20:22;;;;;;;17.98;9.23;;;;;;;8.41;88.19;99782.72;6186908;22;20031;-88
2022/11/14 11:23:10;;;;;;;16.70;8.57;;;;;;;8.45;87.78;99782.34;6092505;22;20468;-87
2022/11/14 11:26:04;;;;;;;19.35;9.73;;;;;;;8.44;87.79;99779.81;6210028;22;20405;-87
2022/11/14 11:29:08;;;;;;;16.27;8.85;;;;;;;8.38;88.68;99772.34;6135515;22;20393;-88
2022/11/14 11:31:56;;;;;;;18.13;9.65;;;;;;;8.41;88.13;99767.66;6161154;22;20399;-87
2022/11/14 11:34:42;;;;;;;16.13;9.40;;;;;;;8.43;88.35;99765.75;6167065;22;20020;-88
2022/11/14 11:37:30;;;;;;;15.93;9.35;;;;;;;8.44;88.73;99769.22;6204001;22;20031;-87
2022/11/14 11:40:21;;;;;;;18.95;9.40;;;;;;;8.43;88.69;99765.75;6188888;22;20056;-88
2022/11/14 11:43:33;;;;;;;15.63;9.43;;;;;;;8.43;89.07;99757.81;6151102;22;20025;-87
2022/11/14 11:46:30;;;;;;;17.65;8.80;;;;;;;8.46;89.26;99764.66;6144796;22;20095;-88
2022/11/14 11:49:28;;;;;;;16.15;9.55;;;;;;;8.44;89.72;99758.66;6157318;22;20095;-87
2022/11/14 11:52:28;;;;;;;17.08;9.35;;;;;;;8.47;89.63;99756.59;6183846;22;20078;-87
2022/11/14 11:55:16;;;;;;;14.80;9.45;;;;;;;8.54;89.29;99748.16;6142703;22;20016;-87
2022/11/14 11:58:05;;;;;;;17.33;9.30;;;;;;;8.57;89.70;99753.19;6163275;22;20031;-87
2022/11/14 12:00:54;;;;;;;20.27;10.27;;;;;;;8.60;89.71;99739.72;6152476;22;20020;-87
2022/11/14 12:03:42;;;;;;;16.10;9.73;;;;;;;8.64;89.39;99741.16;6163269;22;20694;-87
2022/11/14 12:06:28;;;;;;;17.35;10.15;;;;;;;8.65;89.58;99729.59;6210367;22;20020;-88
2022/11/14 12:09:18;;;;;;;13.73;8.73;;;;;;;8.66;89.69;99737.41;6165100;22;20028;-87
2022/11/14 12:12:20;;;;;;;14.02;8.68;;;;;;;8.67;89.90;99731.13;6188613;22;20066;-87
2022/11/14 12:15:14;;;;;;;14.73;9.23;;;;;;;8.64;90.17;99726.09;6173963;22;20083;-88
2022/11/14 12:18:35;;;;;;;18.23;9.95;;;;;;;8.65;91.23;99724.28;6175533;22;20016;-88
2022/11/14 12:21:48;;;;;;;17.65;8.40;;;;;;;8.65;91.26;99719.84;6129644;23;20021;-87
2022/11/14 12:24:56;;;;;;;14.15;8.52;;;;;;;8.72;90.86;99722.81;6135097;22;20413;-87
2022/11/14 12:27:41;;;;;;;16.23;8.77;;;;;;;8.72;91.10;99722.81;6120344;23;20044;-87
2022/11/14 12:30:27;;;;;;;15.07;9.00;;;;;;;8.74;90.53;99723.53;6178891;22;20449;-87
2022/11/14 12:33:22;;;;;;;11.65;7.30;;;;;;;8.75;90.87;99729.66;6184987;23;20470;-87
2022/11/14 12:36:10;;;;;;;16.05;9.88;;;;;;;8.76;91.18;99726.06;6108479;23;20032;-88
2022/11/14 12:38:56;;;;;;;15.13;7.93;;;;;;;8.76;91.44;99724.25;6129307;23;20028;-87
2022/11/14 12:41:41;;;;;;;17.92;9.25;;;;;;;8.77;91.46;99728.56;6180031;23;20460;-81
2022/11/14 12:44:26;;;;;;;20.75;9.70;;;;;;;8.77;91.55;99720.63;6155558;22;20108;-82
2022/11/14 12:47:14;;;;;;;17.25;9.52;;;;;;;8.78;91.95;99717.03;6154292;23;20023;-81
2022/11/14 12:50:01;;;;;;;18.75;9.38;;;;;;;8.79;92.08;99715.22;6153243;22;20107;-82
2022/11/14 12:52:50;;;;;;;14.25;8.30;;;;;;;8.78;92.66;99717.03;6133616;23;20025;-82
2022/11/14 12:55:35;;;;;;;15.93;8.32;;;;;;;8.78;92.88;99713.56;6180828;23;20031;-81
2022/11/14 12:58:42;;;;;;;16.35;9.05;;;;;;;8.72;93.95;99717.53;6110801;23;20353;-82
2022/11/14 13:01:30;;;;;;;15.85;9.07;;;;;;;8.77;92.91;99712.69;6086393;23;20055;-81
2022/11/14 13:04:36;;;;;;;17.33;9.23;;;;;;;8.73;93.66;99713.94;6156981;23;20453;-81
2022/11/14 13:07:27;;;;;;;13.10;7.55;;;;;;;8.78;93.26;99714.38;6082732;23;20095;-82
2022/11/14 13:10:29;;;;;;;13.52;7.70;;;;;;;8.77;93.61;99707.41;6183519;23;20028;-82